Arcadia, Utah
Current Conditions -  °F | °C
As of 1:10 PM on Sunday 21 Dec 2014 (Local Time) from KPUC Reporting Station
Light Snow Light Snow  
Wind Chill: 34°   Ceiling: 1300
Heat Index: 34°   Visibility: 6mi
Dew Point: 28°   Wind: 0mph
Humidity: 79%   Direction: NA
Pressure: 29.97"   Gusts: NA
Location:  39.9707°N, 110.477°W
Report Text: KPUC 212010Z AUTO 00000KT 6SM -SN SCT010 BKN013 OVC050 01/M02 A2997 RMK AO2 P0000 T00111022
Loading
Personal Weather Stations






























Interactive Weather Map New forecast layout! Learn more

10-Day Weather Forecast

Advertisements
Track Severe Weather on mobile